首页
METAR-TAF:

METAR-TAF

机场 :

Rosecrans Memorial Airport

Saint Joseph, 密蘇里州, 美国

纬度: 39-46-05N, 经度: 094-54-33W, 海拔: 251米

当前天气观测

该预报发布于8分钟前的04:53 UTC
风速11节,风向南转西南
温度 31°C
湿度 59%
气压 1009 hPa
能見度: 16.1公里
天空无云

METAR: KSTJ 250453Z AUTO 20011KT 10SM CLR 31/22 A2979 RMK AO2 SLP075 T03060217 $

时间: 00:01 (05:01 UTC)

预报

该预报发布于5小时和41分钟前的23:20 UTC
预报有效从25日的 00点(UTC)到 25日的 24点(UTC)
风速10节,风向南转西南,有时为20节阵风
能見度: 10公里
少量云层高于25000英尺
从 25日的 0100点(UTC)
风速8节,风向
能見度: 10公里
少量云层高于25000英尺
从 25日的 1500点(UTC)
风速12节,风向南转西南,有时为20节阵风
能見度: 10公里
散云层高于12000英尺

TAF: KSTJ 242320Z 2500/2524 20010G20KT P6SM FEW250 FM250100 19008KT P6SM FEW250 FM251500 21012G20KT P6SM SCT120

超过4000个机场的气象观测和天气预报(METAR&TAF报告)。

可查询的气象台以黄色和红色小点在地图上表示。

将鼠标移到小点上方,可查看气象台名称。

然后点击查看天气观测和预报。

如需切换地图:点击带黑十字的绿色按钮放大地图;点击带横线的绿色按钮缩小地图;或者点击绿色箭头查看邻近地区的地图。


METAR-TAF: